SILO ALERT LOG
| Silo ID | Alert Type | Alert Message | Silo Type | Points | Depth (mm) | Strength | Temperature (°C) | Humidity (%) | Height (mm) | Volume (㎥) | Weight (t) | Flag | Time |
|---|---|---|---|---|---|---|---|---|---|---|---|---|---|
| DJDJD04 | Humidity | 습도센서 측정값이 80% 초과 | 평 | 279 | 4203 | 4419 | 5.2 | 82.1 | 3476 | 421.161 | 266.258 | 11 | 2024-01-14 13:39:32.000 |
| DJSSD09 | Temperature | 온도센서 측정값이 0도 미만 | 평 | 125 | 2886 | 3039 | -45.4 | 0 | 4793 | 667.118 | 421.752 | 11 | 2024-01-14 13:39:32.000 |
| DJSAD08 | Humidity | 습도센서 측정값이 80% 초과 | 평 | 614 | 3218 | 4894 | 8.1 | 84 | 4361 | 620.675 | 392.39 | 12 | 2024-01-14 13:39:32.000 |
| DJSAD07 | Humidity | 습도센서 측정값이 80% 초과 | 평 | 312 | 3218 | 1782 | 2.6 | 84.4 | 4361 | 620.585 | 392.334 | 11 | 2024-01-14 13:39:32.000 |
| DJHNR01 | Humidity | 습도센서 측정값이 80% 초과 | 호퍼 | 471 | 4315 | 4971 | 6.7 | 99.9 | 11064 | 472.262 | 298.564 | 13 | 2024-01-14 13:39:32.000 |
| DJSSD04 | Temperature | 온도센서 상태 이상 | 평 | 0 | 8200 | 0 | -999 | -999 | -120 | -16.702 | 0 | 31 | 2024-01-14 13:39:32.000 |
| DJSAD18 | Humidity | 습도센서 측정값이 80% 초과 | 평 | 121 | 1436 | 5793 | 5.6 | 80.8 | 6143 | 611.753 | 386.75 | 11 | 2024-01-14 13:39:31.000 |
| DJDJD01 | Humidity | 습도센서 측정값이 80% 초과 | 평 | 316 | 6852 | 5965 | 4 | 81.5 | 827 | 100.26 | 63.385 | 11 | 2024-01-14 13:39:31.000 |
| DJSAD17 | Humidity | 습도센서 측정값이 80% 초과 | 평 | 435 | 3128 | 4904 | 4.8 | 80.5 | 4451 | 443.23 | 280.21 | 0 | 2024-01-14 13:39:30.000 |
| DJHNR03 | Temperature | 온도센서 상태 이상 | 호퍼 | 0 | 15500 | 0 | -999 | -999 | -119 | 0 | 0 | 31 | 2024-01-14 13:39:24.000 |
| DJSSD12 | Temperature | 온도센서 상태 이상 | 호퍼 | 0 | 11350 | 0 | -999 | -999 | -120 | 0 | 0 | 31 | 2024-01-14 13:39:24.000 |
| DJDJD03 | Humidity | 습도센서 측정값이 80% 초과 | 평 | 61 | 4566 | 5182 | 3.6 | 82.1 | 3113 | 377.15 | 238.435 | 0 | 2024-01-14 12:39:40.000 |
| DJSAD03 | Humidity | 습도센서 측정값이 80% 초과 | 평 | 438 | 1841 | 6197 | 3.8 | 84.5 | 6938 | 287.229 | 181.586 | 0 | 2024-01-14 12:39:40.000 |
| DJSAD01 | Humidity | 습도센서 측정값이 80% 초과 | 평 | 492 | 1495 | 7388 | 2.4 | 84.9 | 7284 | 301.567 | 190.651 | 0 | 2024-01-14 12:39:40.000 |
| DJSAD02 | Humidity | 습도센서 측정값이 80% 초과 | 평 | 381 | 1142 | 4295 | 3 | 84.4 | 7637 | 316.174 | 199.885 | 11 | 2024-01-14 12:39:38.000 |
| DJSAD11 | Humidity | 습도센서 측정값이 80% 초과 | 평 | 338 | 1637 | 3301 | 1.6 | 80.3 | 5942 | 845.585 | 534.579 | 11 | 2024-01-14 12:39:35.000 |
| DJSAD08 | Humidity | 습도센서 측정값이 80% 초과 | 평 | 607 | 2789 | 4918 | 7.7 | 84 | 4790 | 681.648 | 430.938 | 0 | 2024-01-14 12:39:33.000 |
| DJSSD01 | Humidity | 습도센서 측정값이 80% 초과 | 평 | 796 | 2574 | 4712 | 5.5 | 83.8 | 5505 | 766.276 | 484.44 | 0 | 2024-01-14 12:39:33.000 |
| DJSSD09 | Temperature | 온도센서 측정값이 0도 미만 | 평 | 126 | 2900 | 3612 | -45.4 | 0 | 4779 | 665.269 | 420.583 | 11 | 2024-01-14 12:39:33.000 |
| DJHNR01 | Humidity | 습도센서 측정값이 80% 초과 | 호퍼 | 471 | 4315 | 4996 | 5.9 | 99.9 | 11064 | 472.262 | 298.564 | 13 | 2024-01-14 12:39:33.000 |
[첫 페이지] [9945] [9946] [9947] [9948] 9949 [9950] [9951] [9952] [9953] [마지막 페이지]